sensor_id;sensor_type;location;lat;lon;timestamp;pressure;altitude;pressure_sealevel;temperature;humidity
37634;BME280;32048;49.902;22.508;2023-01-16T00:01:52;97960.44;;;2.19;100.00
37634;BME280;32048;49.902;22.508;2023-01-16T00:04:20;97960.47;;;2.17;100.00
37634;BME280;32048;49.902;22.508;2023-01-16T00:06:48;97949.22;;;2.17;100.00
37634;BME280;32048;49.902;22.508;2023-01-16T00:09:15;97964.00;;;2.16;100.00
37634;BME280;32048;49.902;22.508;2023-01-16T00:11:42;97957.03;;;2.17;100.00
37634;BME280;32048;49.902;22.508;2023-01-16T00:14:09;97959.63;;;2.17;100.00
37634;BME280;32048;49.902;22.508;2023-01-16T00:16:36;97954.41;;;2.17;100.00
37634;BME280;32048;49.902;22.508;2023-01-16T00:19:04;97955.25;;;2.17;100.00
37634;BME280;32048;49.902;22.508;2023-01-16T00:21:31;97958.78;;;2.16;100.00
37634;BME280;32048;49.902;22.508;2023-01-16T00:23:59;97955.25;;;2.17;100.00
37634;BME280;32048;49.902;22.508;2023-01-16T00:26:27;97955.13;;;2.22;100.00
37634;BME280;32048;49.902;22.508;2023-01-16T00:28:55;97957.78;;;2.20;100.00
37634;BME280;32048;49.902;22.508;2023-01-16T00:31:22;97952.66;;;2.17;100.00
37634;BME280;32048;49.902;22.508;2023-01-16T00:33:53;97952.66;;;2.17;100.00
37634;BME280;32048;49.902;22.508;2023-01-16T00:36:20;97951.81;;;2.17;100.00
37634;BME280;32048;49.902;22.508;2023-01-16T00:38:47;97945.78;;;2.15;100.00
37634;BME280;32048;49.902;22.508;2023-01-16T00:41:14;97950.13;;;2.16;100.00
37634;BME280;32048;49.902;22.508;2023-01-16T00:43:41;97954.53;;;2.14;100.00
37634;BME280;32048;49.902;22.508;2023-01-16T00:46:09;97960.59;;;2.14;100.00
37634;BME280;32048;49.902;22.508;2023-01-16T00:48:36;97957.13;;;2.14;100.00
37634;BME280;32048;49.902;22.508;2023-01-16T00:51:03;97955.50;;;2.10;100.00
37634;BME280;32048;49.902;22.508;2023-01-16T00:53:31;97958.09;;;2.11;100.00
37634;BME280;32048;49.902;22.508;2023-01-16T00:55:58;97946.84;;;2.09;100.00
37634;BME280;32048;49.902;22.508;2023-01-16T00:58:25;97943.41;;;2.08;100.00
37634;BME280;32048;49.902;22.508;2023-01-16T01:00:52;97940.84;;;2.07;100.00
37634;BME280;32048;49.902;22.508;2023-01-16T01:03:19;97943.47;;;2.05;100.00
37634;BME280;32048;49.902;22.508;2023-01-16T01:05:46;97940.72;;;2.10;100.00
37634;BME280;32048;49.902;22.508;2023-01-16T01:08:14;97949.59;;;2.04;100.00
37634;BME280;32048;49.902;22.508;2023-01-16T01:10:41;97947.00;;;2.04;100.00
37634;BME280;32048;49.902;22.508;2023-01-16T01:13:08;97943.47;;;2.05;100.00
37634;BME280;32048;49.902;22.508;2023-01-16T01:15:35;97941.69;;;2.07;100.00
37634;BME280;32048;49.902;22.508;2023-01-16T01:18:03;97943.44;;;2.07;100.00
37634;BME280;32048;49.902;22.508;2023-01-16T01:20:31;97940.84;;;2.07;100.00
37634;BME280;32048;49.902;22.508;2023-01-16T01:22:58;97934.78;;;2.06;100.00
37634;BME280;32048;49.902;22.508;2023-01-16T01:25:25;97932.13;;;2.08;100.00
37634;BME280;32048;49.902;22.508;2023-01-16T01:27:52;97929.47;;;2.10;100.00
37634;BME280;32048;49.902;22.508;2023-01-16T01:30:19;97932.03;;;2.11;100.00
37634;BME280;32048;49.902;22.508;2023-01-16T01:32:46;97930.31;;;2.10;100.00
37634;BME280;32048;49.902;22.508;2023-01-16T01:35:13;97919.91;;;2.10;100.00
37634;BME280;32048;49.902;22.508;2023-01-16T01:37:41;97927.78;;;2.08;100.00
37634;BME280;32048;49.902;22.508;2023-01-16T01:40:08;97916.50;;;2.08;100.00
37634;BME280;32048;49.902;22.508;2023-01-16T01:42:40;97919.88;;;2.12;100.00
37634;BME280;32048;49.902;22.508;2023-01-16T01:45:30;97922.47;;;2.12;100.00
37634;BME280;32048;49.902;22.508;2023-01-16T01:50:45;97923.16;;;2.17;100.00
37634;BME280;32048;49.902;22.508;2023-01-16T01:53:25;97916.13;;;2.20;100.00
37634;BME280;32048;49.902;22.508;2023-01-16T01:55:55;97921.22;;;2.23;100.00
37634;BME280;32048;49.902;22.508;2023-01-16T01:58:26;97921.22;;;2.23;100.00
37634;BME280;32048;49.902;22.508;2023-01-16T02:00:57;97915.94;;;2.26;100.00
37634;BME280;32048;49.902;22.508;2023-01-16T02:03:48;97912.53;;;2.24;100.00
37634;BME280;32048;49.902;22.508;2023-01-16T02:06:21;97906.41;;;2.25;100.00
37634;BME280;32048;49.902;22.508;2023-01-16T02:08:53;97922.00;;;2.27;100.00
37634;BME280;32048;49.902;22.508;2023-01-16T02:11:25;97915.84;;;2.28;100.00
37634;BME280;32048;49.902;22.508;2023-01-16T02:14:05;97913.25;;;2.28;100.00
37634;BME280;32048;49.902;22.508;2023-01-16T02:16:33;97914.16;;;2.27;100.00
37634;BME280;32048;49.902;22.508;2023-01-16T02:33:21;97875.78;;;2.32;100.00
37634;BME280;32048;49.902;22.508;2023-01-16T02:42:02;97868.16;;;2.26;100.00
37634;BME280;32048;49.902;22.508;2023-01-16T02:52:51;97842.34;;;2.20;100.00
37634;BME280;32048;49.902;22.508;2023-01-16T02:55:29;97846.00;;;2.14;100.00
37634;BME280;32048;49.902;22.508;2023-01-16T02:58:01;97850.28;;;2.15;100.00
37634;BME280;32048;49.902;22.508;2023-01-16T03:00:29;97842.53;;;2.14;100.00
37634;BME280;32048;49.902;22.508;2023-01-16T03:02:56;97838.28;;;2.11;100.00
37634;BME280;32048;49.902;22.508;2023-01-16T03:05:23;97840.00;;;2.11;100.00
37634;BME280;32048;49.902;22.508;2023-01-16T03:10:50;97821.84;;;2.09;100.00
37634;BME280;32048;49.902;22.508;2023-01-16T03:21:48;97837.25;;;2.15;100.00
37634;BME280;32048;49.902;22.508;2023-01-16T03:29:52;97829.72;;;2.07;100.00
37634;BME280;32048;49.902;22.508;2023-01-16T03:35:09;97819.41;;;2.04;100.00
37634;BME280;32048;49.902;22.508;2023-01-16T03:38:02;97822.84;;;2.05;100.00
37634;BME280;32048;49.902;22.508;2023-01-16T03:40:34;97817.66;;;2.05;100.00
37634;BME280;32048;49.902;22.508;2023-01-16T03:43:08;97820.28;;;2.03;100.00
37634;BME280;32048;49.902;22.508;2023-01-16T03:45:41;97819.44;;;2.03;100.00
37634;BME280;32048;49.902;22.508;2023-01-16T03:50:52;97817.00;;;1.98;100.00
37634;BME280;32048;49.902;22.508;2023-01-16T03:53:23;97817.00;;;1.98;100.00
37634;BME280;32048;49.902;22.508;2023-01-16T03:56:07;97823.88;;;1.99;100.00
37634;BME280;32048;49.902;22.508;2023-01-16T03:58:49;97819.59;;;1.98;100.00
37634;BME280;32048;49.902;22.508;2023-01-16T04:04:53;97817.88;;;1.97;100.00
37634;BME280;32048;49.902;22.508;2023-01-16T04:07:31;97814.44;;;1.97;100.00
37634;BME280;32048;49.902;22.508;2023-01-16T04:10:07;97812.63;;;1.99;100.00
37634;BME280;32048;49.902;22.508;2023-01-16T04:12:40;97815.09;;;2.03;100.00
37634;BME280;32048;49.902;22.508;2023-01-16T04:15:08;97815.84;;;2.07;100.00
37634;BME280;32048;49.902;22.508;2023-01-16T04:17:37;97814.88;;;2.10;100.00
37634;BME280;32048;49.902;22.508;2023-01-16T04:20:06;97811.28;;;2.14;100.00
37634;BME280;32048;49.902;22.508;2023-01-16T04:22:35;97812.00;;;2.17;100.00
37634;BME280;32048;49.902;22.508;2023-01-16T04:25:06;97805.00;;;2.19;100.00
37634;BME280;32048;49.902;22.508;2023-01-16T04:27:34;97816.22;;;2.21;100.00
37634;BME280;32048;49.902;22.508;2023-01-16T04:30:05;97817.94;;;2.22;100.00
37634;BME280;32048;49.902;22.508;2023-01-16T04:32:32;97811.78;;;2.25;100.00
37634;BME280;32048;49.902;22.508;2023-01-16T04:34:59;97813.47;;;2.26;100.00
37634;BME280;32048;49.902;22.508;2023-01-16T04:37:27;97817.72;;;2.28;100.00
37634;BME280;32048;49.902;22.508;2023-01-16T04:39:53;97811.59;;;2.31;100.00
37634;BME280;32048;49.902;22.508;2023-01-16T04:42:21;97806.28;;;2.33;100.00
37634;BME280;32048;49.902;22.508;2023-01-16T04:44:48;97802.81;;;2.34;100.00
37634;BME280;32048;49.902;22.508;2023-01-16T04:47:15;97814.88;;;2.36;100.00
37634;BME280;32048;49.902;22.508;2023-01-16T04:49:42;97806.22;;;2.36;100.00
37634;BME280;32048;49.902;22.508;2023-01-16T04:52:12;97807.84;;;2.38;100.00
37634;BME280;32048;49.902;22.508;2023-01-16T04:54:39;97812.22;;;2.38;100.00
37634;BME280;32048;49.902;22.508;2023-01-16T04:57:06;97824.28;;;2.40;100.00
37634;BME280;32048;49.902;22.508;2023-01-16T04:59:33;97821.59;;;2.42;100.00
37634;BME280;32048;49.902;22.508;2023-01-16T05:02:01;97814.72;;;2.41;100.00
37634;BME280;32048;49.902;22.508;2023-01-16T05:04:28;97816.41;;;2.42;100.00
37634;BME280;32048;49.902;22.508;2023-01-16T05:06:55;97819.00;;;2.42;100.00
37634;BME280;32048;49.902;22.508;2023-01-16T05:09:22;97817.34;;;2.39;100.00
37634;BME280;32048;49.902;22.508;2023-01-16T05:11:49;97805.97;;;2.42;100.00
37634;BME280;32048;49.902;22.508;2023-01-16T05:14:16;97805.94;;;2.43;100.00
37634;BME280;32048;49.902;22.508;2023-01-16T05:16:43;97802.44;;;2.44;100.00
37634;BME280;32048;49.902;22.508;2023-01-16T05:19:10;97799.88;;;2.43;100.00
37634;BME280;32048;49.902;22.508;2023-01-16T05:21:38;97796.44;;;2.42;100.00
37634;BME280;32048;49.902;22.508;2023-01-16T05:24:06;97799.06;;;2.41;100.00
37634;BME280;32048;49.902;22.508;2023-01-16T05:26:33;97801.63;;;2.42;100.00
37634;BME280;32048;49.902;22.508;2023-01-16T05:29:00;97792.09;;;2.41;100.00
37634;BME280;32048;49.902;22.508;2023-01-16T05:31:27;97793.88;;;2.41;100.00
37634;BME280;32048;49.902;22.508;2023-01-16T05:33:54;97789.50;;;2.41;100.00
37634;BME280;32048;49.902;22.508;2023-01-16T05:36:22;97783.50;;;2.39;100.00
37634;BME280;32048;49.902;22.508;2023-01-16T05:38:49;97778.91;;;2.46;100.00
37634;BME280;32048;49.902;22.508;2023-01-16T05:41:17;97782.47;;;2.43;100.00
37634;BME280;32048;49.902;22.508;2023-01-16T05:43:44;97779.84;;;2.45;100.00
37634;BME280;32048;49.902;22.508;2023-01-16T05:46:12;97787.75;;;2.42;100.00
37634;BME280;32048;49.902;22.508;2023-01-16T05:48:39;97785.22;;;2.40;100.00
37634;BME280;32048;49.902;22.508;2023-01-16T05:51:06;97777.28;;;2.43;100.00
37634;BME280;32048;49.902;22.508;2023-01-16T05:53:33;97778.13;;;2.44;100.00
37634;BME280;32048;49.902;22.508;2023-01-16T05:56:09;97786.00;;;2.42;100.00
37634;BME280;32048;49.902;22.508;2023-01-16T05:58:37;97776.44;;;2.43;100.00
37634;BME280;32048;49.902;22.508;2023-01-16T06:01:04;97781.59;;;2.44;100.00
37634;BME280;32048;49.902;22.508;2023-01-16T06:03:31;97776.38;;;2.44;100.00
37634;BME280;32048;49.902;22.508;2023-01-16T06:05:59;97764.19;;;2.45;100.00
37634;BME280;32048;49.902;22.508;2023-01-16T06:08:27;97754.78;;;2.41;100.00
37634;BME280;32048;49.902;22.508;2023-01-16T06:10:56;97750.41;;;2.41;100.00
37634;BME280;32048;49.902;22.508;2023-01-16T06:13:23;97747.81;;;2.41;100.00
37634;BME280;32048;49.902;22.508;2023-01-16T06:15:50;97750.41;;;2.41;100.00
37634;BME280;32048;49.902;22.508;2023-01-16T06:18:17;97745.31;;;2.38;100.00
37634;BME280;32048;49.902;22.508;2023-01-16T06:20:45;97743.59;;;2.37;100.00
37634;BME280;32048;49.902;22.508;2023-01-16T06:23:12;97751.53;;;2.34;100.00
37634;BME280;32048;49.902;22.508;2023-01-16T06:25:39;97751.53;;;2.34;100.00
37634;BME280;32048;49.902;22.508;2023-01-16T06:28:06;97747.09;;;2.38;100.00
37634;BME280;32048;49.902;22.508;2023-01-16T06:30:33;97741.13;;;2.34;100.00
37634;BME280;32048;49.902;22.508;2023-01-16T06:33:00;97746.66;;;2.25;100.00
37634;BME280;32048;49.902;22.508;2023-01-16T06:35:27;97759.00;;;2.20;100.00
37634;BME280;32048;49.902;22.508;2023-01-16T06:37:54;97742.63;;;2.16;100.00
37634;BME280;32048;49.902;22.508;2023-01-16T06:40:21;97749.66;;;2.13;100.00
37634;BME280;32048;49.902;22.508;2023-01-16T06:42:48;97755.00;;;2.10;100.00
37634;BME280;32048;49.902;22.508;2023-01-16T06:45:16;97745.41;;;2.10;100.00
37634;BME280;32048;49.902;22.508;2023-01-16T06:47:43;97762.00;;;2.07;100.00
37634;BME280;32048;49.902;22.508;2023-01-16T06:50:10;97763.66;;;2.10;100.00
37634;BME280;32048;49.902;22.508;2023-01-16T06:52:37;97764.56;;;2.09;100.00
37634;BME280;32048;49.902;22.508;2023-01-16T06:55:06;97761.16;;;2.07;100.00
37634;BME280;32048;49.902;22.508;2023-01-16T06:57:35;97763.72;;;2.08;100.00
37634;BME280;32048;49.902;22.508;2023-01-16T07:00:03;97765.44;;;2.08;100.00
37634;BME280;32048;49.902;22.508;2023-01-16T07:02:30;97762.81;;;2.10;100.00
37634;BME280;32048;49.902;22.508;2023-01-16T07:04:58;97761.00;;;2.12;100.00
37634;BME280;32048;49.902;22.508;2023-01-16T07:07:25;97763.50;;;2.15;100.00
37634;BME280;32048;49.902;22.508;2023-01-16T07:09:52;97758.25;;;2.16;100.00
37634;BME280;32048;49.902;22.508;2023-01-16T07:12:19;97753.78;;;2.20;100.00
37634;BME280;32048;49.902;22.508;2023-01-16T07:14:46;97743.28;;;2.21;100.00
37634;BME280;32048;49.902;22.508;2023-01-16T07:17:32;97753.69;;;2.23;100.00
37634;BME280;32048;49.902;22.508;2023-01-16T07:20:17;97750.16;;;2.24;100.00
37634;BME280;32048;49.902;22.508;2023-01-16T07:23:19;97740.59;;;2.24;100.00
37634;BME280;32048;49.902;22.508;2023-01-16T07:25:47;97739.66;;;2.27;100.00
37634;BME280;32048;49.902;22.508;2023-01-16T07:28:17;97743.94;;;2.28;100.00
37634;BME280;32048;49.902;22.508;2023-01-16T07:30:45;97745.66;;;2.29;100.00
37634;BME280;32048;49.902;22.508;2023-01-16T07:33:13;97742.97;;;2.31;100.00
37634;BME280;32048;49.902;22.508;2023-01-16T07:35:41;97741.16;;;2.33;100.00
37634;BME280;32048;49.902;22.508;2023-01-16T07:38:08;97732.50;;;2.32;100.00
37634;BME280;32048;49.902;22.508;2023-01-16T07:40:35;97739.41;;;2.33;100.00
37634;BME280;32048;49.902;22.508;2023-01-16T07:43:02;97735.00;;;2.35;100.00
37634;BME280;32048;49.902;22.508;2023-01-16T07:45:29;97740.97;;;2.39;100.00
37634;BME280;32048;49.902;22.508;2023-01-16T07:47:56;97726.13;;;2.41;100.00
37634;BME280;32048;49.902;22.508;2023-01-16T07:50:23;97730.31;;;2.45;100.00
37634;BME280;32048;49.902;22.508;2023-01-16T07:52:50;97733.78;;;2.45;100.00
37634;BME280;32048;49.902;22.508;2023-01-16T07:55:18;97726.63;;;2.50;100.00
37634;BME280;32048;49.902;22.508;2023-01-16T07:57:45;97725.63;;;2.55;100.00
37634;BME280;32048;49.902;22.508;2023-01-16T08:00:13;97723.69;;;2.60;100.00
37634;BME280;32048;49.902;22.508;2023-01-16T08:02:41;97715.78;;;2.63;100.00
37634;BME280;32048;49.902;22.508;2023-01-16T08:05:09;97710.41;;;2.67;100.00
37634;BME280;32048;49.902;22.508;2023-01-16T08:07:37;97711.88;;;2.75;100.00
37634;BME280;32048;49.902;22.508;2023-01-16T08:10:04;97711.56;;;2.82;100.00
37634;BME280;32048;49.902;22.508;2023-01-16T08:12:32;97713.16;;;2.86;100.00
37634;BME280;32048;49.902;22.508;2023-01-16T08:14:59;97713.06;;;2.89;100.00
37634;BME280;32048;49.902;22.508;2023-01-16T08:17:26;97694.81;;;2.89;100.00
37634;BME280;32048;49.902;22.508;2023-01-16T08:19:53;97696.53;;;2.89;100.00
37634;BME280;32048;49.902;22.508;2023-01-16T08:22:20;97693.09;;;2.88;100.00
37634;BME280;32048;49.902;22.508;2023-01-16T08:24:47;97690.38;;;2.91;100.00
37634;BME280;32048;49.902;22.508;2023-01-16T08:27:14;97687.69;;;2.93;100.00
37634;BME280;32048;49.902;22.508;2023-01-16T08:29:41;97692.81;;;2.96;100.00
37634;BME280;32048;49.902;22.508;2023-01-16T08:32:08;97693.69;;;2.95;100.00
37634;BME280;32048;49.902;22.508;2023-01-16T08:34:36;97693.53;;;3.00;100.00
37634;BME280;32048;49.902;22.508;2023-01-16T08:37:03;97689.09;;;3.02;100.00
37634;BME280;32048;49.902;22.508;2023-01-16T08:39:31;97688.22;;;3.03;100.00
37634;BME280;32048;49.902;22.508;2023-01-16T08:41:58;97688.09;;;3.06;100.00
37634;BME280;32048;49.902;22.508;2023-01-16T08:44:44;97688.91;;;3.06;100.00
37634;BME280;32048;49.902;22.508;2023-01-16T08:47:30;97680.88;;;3.12;100.00
37634;BME280;32048;49.902;22.508;2023-01-16T08:50:17;97682.19;;;3.23;100.00
37634;BME280;32048;49.902;22.508;2023-01-16T08:53:04;97671.41;;;3.32;100.00
37634;BME280;32048;49.902;22.508;2023-01-16T08:55:31;97669.41;;;3.39;100.00
37634;BME280;32048;49.902;22.508;2023-01-16T08:57:58;97664.69;;;3.47;100.00
37634;BME280;32048;49.902;22.508;2023-01-16T09:00:27;97646.31;;;3.50;100.00
37634;BME280;32048;49.902;22.508;2023-01-16T09:02:54;97633.28;;;3.50;100.00
37634;BME280;32048;49.902;22.508;2023-01-16T09:05:25;97637.22;;;3.59;100.00
37634;BME280;32048;49.902;22.508;2023-01-16T09:07:52;97652.72;;;3.63;100.00
37634;BME280;32048;49.902;22.508;2023-01-16T09:10:19;97650.03;;;3.65;100.00
37634;BME280;32048;49.902;22.508;2023-01-16T09:12:46;97645.75;;;3.64;100.00
37634;BME280;32048;49.902;22.508;2023-01-16T09:15:32;97641.31;;;3.66;100.00
37634;BME280;32048;49.902;22.508;2023-01-16T09:17:59;97640.38;;;3.67;100.00
37634;BME280;32048;49.902;22.508;2023-01-16T09:20:26;97632.59;;;3.65;100.00
37634;BME280;32048;49.902;22.508;2023-01-16T09:23:00;97631.91;;;3.62;100.00
37634;BME280;32048;49.902;22.508;2023-01-16T09:25:29;97628.31;;;3.64;100.00
37634;BME280;32048;49.902;22.508;2023-01-16T09:27:57;97639.69;;;3.63;100.00
37634;BME280;32048;49.902;22.508;2023-01-16T09:30:26;97633.59;;;3.63;100.00
37634;BME280;32048;49.902;22.508;2023-01-16T09:32:53;97629.25;;;3.63;100.00
37634;BME280;32048;49.902;22.508;2023-01-16T09:35:20;97625.66;;;3.66;100.00
37634;BME280;32048;49.902;22.508;2023-01-16T09:37:47;97628.31;;;3.64;100.00
37634;BME280;32048;49.902;22.508;2023-01-16T09:40:20;97625.66;;;3.66;100.00
37634;BME280;32048;49.902;22.508;2023-01-16T09:43:03;97617.91;;;3.63;100.00
37634;BME280;32048;49.902;22.508;2023-01-16T09:45:55;97614.47;;;3.62;100.00
37634;BME280;32048;49.902;22.508;2023-01-16T09:48:32;97614.66;;;3.58;100.00
37634;BME280;32048;49.902;22.508;2023-01-16T09:51:06;97624.28;;;3.57;100.00
37634;BME280;32048;49.902;22.508;2023-01-16T09:56:43;97607.63;;;3.60;100.00
37634;BME280;32048;49.902;22.508;2023-01-16T09:59:43;97597.19;;;3.60;100.00
37634;BME280;32048;49.902;22.508;2023-01-16T10:02:20;97579.69;;;3.62;100.00
37634;BME280;32048;49.902;22.508;2023-01-16T10:04:48;97584.06;;;3.61;100.00
37634;BME280;32048;49.902;22.508;2023-01-16T10:12:35;97571.66;;;3.66;100.00
37634;BME280;32048;49.902;22.508;2023-01-16T10:15:23;97549.94;;;3.66;100.00
37634;BME280;32048;49.902;22.508;2023-01-16T10:18:27;97547.31;;;3.66;100.00
37634;BME280;32048;49.902;22.508;2023-01-16T10:21:27;97544.56;;;3.69;100.00
37634;BME280;32048;49.902;22.508;2023-01-16T10:27:06;97525.19;;;3.74;100.00
37634;BME280;32048;49.902;22.508;2023-01-16T10:29:50;97504.31;;;3.74;100.00
37634;BME280;32048;49.902;22.508;2023-01-16T10:32:27;97506.63;;;3.81;100.00
37634;BME280;32048;49.902;22.508;2023-01-16T10:35:02;97503.88;;;3.84;100.00
37634;BME280;32048;49.902;22.508;2023-01-16T10:37:33;97499.25;;;3.90;100.00
37634;BME280;32048;49.902;22.508;2023-01-16T10:40:13;97495.75;;;3.90;100.00
37634;BME280;32048;49.902;22.508;2023-01-16T10:42:42;97494.84;;;3.91;100.00
37634;BME280;32048;49.902;22.508;2023-01-16T10:45:34;97487.72;;;3.94;100.00
37634;BME280;32048;49.902;22.508;2023-01-16T10:48:21;97480.44;;;4.01;100.00
37634;BME280;32048;49.902;22.508;2023-01-16T10:51:07;97474.09;;;4.07;100.00
37634;BME280;32048;49.902;22.508;2023-01-16T10:53:35;97466.09;;;4.10;100.00
37634;BME280;32048;49.902;22.508;2023-01-16T10:56:03;97457.94;;;4.18;100.00
37634;BME280;32048;49.902;22.508;2023-01-16T10:58:36;97455.16;;;4.21;100.00
37634;BME280;32048;49.902;22.508;2023-01-16T11:01:15;97432.50;;;4.21;100.00
37634;BME280;32048;49.902;22.508;2023-01-16T11:03:48;97430.31;;;4.31;100.00
37634;BME280;32048;49.902;22.508;2023-01-16T11:06:21;97438.69;;;4.37;100.00
37634;BME280;32048;49.902;22.508;2023-01-16T11:08:57;97434.03;;;4.44;100.00
37634;BME280;32048;49.902;22.508;2023-01-16T11:11:27;97427.63;;;4.50;100.00
37634;BME280;32048;49.902;22.508;2023-01-16T11:14:18;97416.72;;;4.59;100.00
37634;BME280;32048;49.902;22.508;2023-01-16T11:17:21;97416.25;;;4.68;100.00
37634;BME280;32048;49.902;22.508;2023-01-16T11:20:13;97420.72;;;4.84;100.00
37634;BME280;32048;49.902;22.508;2023-01-16T11:22:40;97423.66;;;4.95;100.00
37634;BME280;32048;49.902;22.508;2023-01-16T11:25:14;97422.63;;;4.97;100.00
37634;BME280;32048;49.902;22.508;2023-01-16T11:27:44;97414.97;;;4.94;100.00
37634;BME280;32048;49.902;22.508;2023-01-16T11:30:17;97404.19;;;4.83;100.00
37634;BME280;32048;49.902;22.508;2023-01-16T11:32:47;97387.03;;;4.77;100.00
37634;BME280;32048;49.902;22.508;2023-01-16T11:35:17;97373.13;;;4.77;100.00
37634;BME280;32048;49.902;22.508;2023-01-16T11:37:49;97375.06;;;4.73;100.00
37634;BME280;32048;49.902;22.508;2023-01-16T11:40:22;97374.88;;;4.76;100.00
37634;BME280;32048;49.902;22.508;2023-01-16T11:42:55;97366.03;;;4.79;100.00
37634;BME280;32048;49.902;22.508;2023-01-16T11:45:44;97365.28;;;4.77;100.00
37634;BME280;32048;49.902;22.508;2023-01-16T11:51:02;97363.13;;;4.68;100.00
37634;BME280;32048;49.902;22.508;2023-01-16T11:53:31;97354.69;;;4.63;100.00
37634;BME280;32048;49.902;22.508;2023-01-16T11:56:20;97332.81;;;4.64;100.00
37634;BME280;32048;49.902;22.508;2023-01-16T12:01:25;97328.75;;;4.41;100.00
37634;BME280;32048;49.902;22.508;2023-01-16T12:04:25;97333.22;;;4.38;100.00
37634;BME280;32048;49.902;22.508;2023-01-16T12:07:17;97323.53;;;4.41;100.00
37634;BME280;32048;49.902;22.508;2023-01-16T12:12:33;97317.19;;;4.46;100.00
37634;BME280;32048;49.902;22.508;2023-01-16T12:15:25;97315.16;;;4.51;100.00
37634;BME280;32048;49.902;22.508;2023-01-16T12:21:08;97308.00;;;4.55;100.00
37634;BME280;32048;49.902;22.508;2023-01-16T12:23:57;97298.72;;;4.49;100.00
37634;BME280;32048;49.902;22.508;2023-01-16T12:32:25;97269.06;;;4.33;100.00
37634;BME280;32048;49.902;22.508;2023-01-16T12:35:14;97251.19;;;4.24;100.00
37634;BME280;32048;49.902;22.508;2023-01-16T12:44:09;97256.75;;;4.00;100.00
37634;BME280;32048;49.902;22.508;2023-01-16T12:47:28;97251.31;;;4.05;100.00
37634;BME280;32048;49.902;22.508;2023-01-16T12:52:37;97242.22;;;4.12;100.00
37634;BME280;32048;49.902;22.508;2023-01-16T13:00:21;97230.09;;;3.93;100.00
37634;BME280;32048;49.902;22.508;2023-01-16T13:03:02;97239.53;;;3.79;100.00
37634;BME280;32048;49.902;22.508;2023-01-16T13:05:38;97224.09;;;3.74;100.00
37634;BME280;32048;49.902;22.508;2023-01-16T13:08:09;97229.41;;;3.72;100.00
37634;BME280;32048;49.902;22.508;2023-01-16T13:10:42;97221.25;;;3.61;100.00
37634;BME280;32048;49.902;22.508;2023-01-16T13:13:31;97225.59;;;3.61;100.00
37634;BME280;32048;49.902;22.508;2023-01-16T13:16:20;97216.31;;;3.55;100.00
37634;BME280;32048;49.902;22.508;2023-01-16T13:19:02;97212.78;;;3.56;100.00
37634;BME280;32048;49.902;22.508;2023-01-16T13:21:36;97204.28;;;3.52;100.00
37634;BME280;32048;49.902;22.508;2023-01-16T13:24:17;97209.56;;;3.51;100.00
37634;BME280;32048;49.902;22.508;2023-01-16T13:26:53;97203.41;;;3.52;100.00
37634;BME280;32048;49.902;22.508;2023-01-16T13:29:28;97204.94;;;3.56;100.00
37634;BME280;32048;49.902;22.508;2023-01-16T13:32:03;97193.13;;;3.49;100.00
37634;BME280;32048;49.902;22.508;2023-01-16T13:34:50;97192.44;;;3.45;100.00
37634;BME280;32048;49.902;22.508;2023-01-16T13:37:44;97182.84;;;3.46;100.00
37634;BME280;32048;49.902;22.508;2023-01-16T13:43:53;97181.13;;;3.45;100.00
37634;BME280;32048;49.902;22.508;2023-01-16T13:46:31;97175.06;;;3.44;100.00
37634;BME280;32048;49.902;22.508;2023-01-16T13:49:02;97169.94;;;3.43;100.00
37634;BME280;32048;49.902;22.508;2023-01-16T13:51:30;97168.41;;;3.39;100.00
37634;BME280;32048;49.902;22.508;2023-01-16T13:53:59;97163.19;;;3.39;100.00
37634;BME280;32048;49.902;22.508;2023-01-16T13:56:30;97160.72;;;3.36;100.00
37634;BME280;32048;49.902;22.508;2023-01-16T13:59:05;97151.97;;;3.37;100.00
37634;BME280;32048;49.902;22.508;2023-01-16T14:06:47;97147.66;;;3.36;100.00
37634;BME280;32048;49.902;22.508;2023-01-16T14:09:21;97135.63;;;3.33;100.00
37634;BME280;32048;49.902;22.508;2023-01-16T14:14:46;97126.13;;;3.32;100.00
37634;BME280;32048;49.902;22.508;2023-01-16T14:26:04;97114.13;;;3.10;100.00
37634;BME280;32048;49.902;22.508;2023-01-16T14:28:33;97117.72;;;3.08;100.00
37634;BME280;32048;49.902;22.508;2023-01-16T14:31:01;97120.25;;;3.09;100.00
37634;BME280;32048;49.902;22.508;2023-01-16T14:33:29;97110.88;;;3.05;100.00
37634;BME280;32048;49.902;22.508;2023-01-16T14:35:58;97107.41;;;3.05;100.00
37634;BME280;32048;49.902;22.508;2023-01-16T14:38:28;97108.28;;;3.05;100.00
37634;BME280;32048;49.902;22.508;2023-01-16T14:41:00;97106.44;;;3.07;100.00
37634;BME280;32048;49.902;22.508;2023-01-16T14:50:14;97102.06;;;3.08;100.00
37634;BME280;32048;49.902;22.508;2023-01-16T14:53:13;97093.53;;;3.04;100.00
37634;BME280;32048;49.902;22.508;2023-01-16T14:56:26;97093.53;;;3.04;100.00
37634;BME280;32048;49.902;22.508;2023-01-16T14:59:04;97082.28;;;3.04;100.00
37634;BME280;32048;49.902;22.508;2023-01-16T15:01:46;97080.59;;;3.03;100.00
37634;BME280;32048;49.902;22.508;2023-01-16T15:07:18;97076.34;;;3.00;100.00
37634;BME280;32048;49.902;22.508;2023-01-16T15:09:50;97074.75;;;2.98;100.00
37634;BME280;32048;49.902;22.508;2023-01-16T15:12:17;97070.59;;;2.94;100.00
37634;BME280;32048;49.902;22.508;2023-01-16T15:14:56;97062.88;;;2.92;100.00
37634;BME280;32048;49.902;22.508;2023-01-16T15:17:38;97060.09;;;2.95;100.00
37634;BME280;32048;49.902;22.508;2023-01-16T15:20:27;97060.94;;;2.96;100.00
37634;BME280;32048;49.902;22.508;2023-01-16T15:23:24;97054.88;;;2.95;100.00
37634;BME280;32048;49.902;22.508;2023-01-16T15:31:00;97049.72;;;2.94;100.00
37634;BME280;32048;49.902;22.508;2023-01-16T15:33:32;97044.28;;;2.98;100.00